sensor_id;sensor_type;location;lat;lon;timestamp;pressure;altitude;pressure_sealevel;temperature;humidity
3142;BME280;1581;51.568;6.998;2023-04-26T00:00:04;101155.91;;;5.59;100.00
3142;BME280;1581;51.568;6.998;2023-04-26T00:02:34;101154.06;;;5.60;100.00
3142;BME280;1581;51.568;6.998;2023-04-26T00:05:02;101159.81;;;5.55;100.00
3142;BME280;1581;51.568;6.998;2023-04-26T00:07:30;101161.44;;;5.39;100.00
3142;BME280;1581;51.568;6.998;2023-04-26T00:10:01;101157.66;;;5.41;100.00
3142;BME280;1581;51.568;6.998;2023-04-26T00:12:29;101153.25;;;5.32;100.00
3142;BME280;1581;51.568;6.998;2023-04-26T00:14:57;101154.94;;;5.33;100.00
3142;BME280;1581;51.568;6.998;2023-04-26T00:17:25;101155.09;;;5.22;100.00
3142;BME280;1581;51.568;6.998;2023-04-26T00:19:53;101157.91;;;5.11;100.00
3142;BME280;1581;51.568;6.998;2023-04-26T00:22:23;101154.75;;;4.99;100.00
3142;BME280;1581;51.568;6.998;2023-04-26T00:24:51;101152.81;;;4.91;100.00
3142;BME280;1581;51.568;6.998;2023-04-26T00:27:22;101144.50;;;4.86;100.00
3142;BME280;1581;51.568;6.998;2023-04-26T00:29:50;101142.56;;;4.79;100.00
3142;BME280;1581;51.568;6.998;2023-04-26T00:32:17;101138.09;;;4.89;100.00
3142;BME280;1581;51.568;6.998;2023-04-26T00:34:45;101136.16;;;4.91;100.00
3142;BME280;1581;51.568;6.998;2023-04-26T00:37:13;101139.66;;;4.82;100.00
3142;BME280;1581;51.568;6.998;2023-04-26T00:39:42;101135.06;;;4.74;100.00
3142;BME280;1581;51.568;6.998;2023-04-26T00:42:10;101144.66;;;4.75;100.00
3142;BME280;1581;51.568;6.998;2023-04-26T00:44:39;101142.19;;;4.74;100.00
3142;BME280;1581;51.568;6.998;2023-04-26T00:47:07;101142.59;;;4.60;100.00
3142;BME280;1581;51.568;6.998;2023-04-26T00:49:35;101138.72;;;4.54;100.00
3142;BME280;1581;51.568;6.998;2023-04-26T00:52:04;101136.50;;;4.50;100.00
3142;BME280;1581;51.568;6.998;2023-04-26T00:54:32;101142.59;;;4.60;100.00
3142;BME280;1581;51.568;6.998;2023-04-26T00:57:01;101135.41;;;4.43;100.00
3142;BME280;1581;51.568;6.998;2023-04-26T00:59:29;101133.75;;;4.42;100.00
3142;BME280;1581;51.568;6.998;2023-04-26T01:01:59;101132.19;;;4.49;100.00
3142;BME280;1581;51.568;6.998;2023-04-26T01:04:27;101130.97;;;4.34;100.00
3142;BME280;1581;51.568;6.998;2023-04-26T01:06:56;101125.69;;;4.34;100.00
3142;BME280;1581;51.568;6.998;2023-04-26T01:09:24;101130.69;;;4.27;100.00
3142;BME280;1581;51.568;6.998;2023-04-26T01:11:52;101124.16;;;4.41;100.00
3142;BME280;1581;51.568;6.998;2023-04-26T01:14:23;101132.06;;;4.22;100.00
3142;BME280;1581;51.568;6.998;2023-04-26T01:16:51;101132.91;;;4.22;100.00
3142;BME280;1581;51.568;6.998;2023-04-26T01:19:20;101137.91;;;4.07;100.00
3142;BME280;1581;51.568;6.998;2023-04-26T01:21:49;101149.81;;;4.11;100.00
3142;BME280;1581;51.568;6.998;2023-04-26T01:24:18;101142.06;;;4.09;100.00
3142;BME280;1581;51.568;6.998;2023-04-26T01:26:46;101143.59;;;4.21;100.00
3142;BME280;1581;51.568;6.998;2023-04-26T01:29:16;101148.44;;;4.07;100.00
3142;BME280;1581;51.568;6.998;2023-04-26T01:31:45;101153.03;;;4.05;100.00
3142;BME280;1581;51.568;6.998;2023-04-26T01:34:14;101153.56;;;3.99;100.00
3142;BME280;1581;51.568;6.998;2023-04-26T01:36:42;101153.16;;;4.03;100.00
3142;BME280;1581;51.568;6.998;2023-04-26T01:39:10;101156.22;;;4.08;100.00
3142;BME280;1581;51.568;6.998;2023-04-26T01:41:40;101153.16;;;4.03;100.00
3142;BME280;1581;51.568;6.998;2023-04-26T01:44:07;101148.13;;;3.91;100.00
3142;BME280;1581;51.568;6.998;2023-04-26T01:46:35;101147.31;;;4.00;100.00
3142;BME280;1581;51.568;6.998;2023-04-26T01:49:03;101152.59;;;4.09;100.00
3142;BME280;1581;51.568;6.998;2023-04-26T01:51:31;101149.94;;;4.00;100.00
3142;BME280;1581;51.568;6.998;2023-04-26T01:53:59;101146.31;;;3.82;100.00
3142;BME280;1581;51.568;6.998;2023-04-26T01:56:28;101152.03;;;3.96;100.00
3142;BME280;1581;51.568;6.998;2023-04-26T01:58:57;101148.28;;;3.89;100.00
3142;BME280;1581;51.568;6.998;2023-04-26T02:01:25;101147.88;;;3.84;100.00
3142;BME280;1581;51.568;6.998;2023-04-26T02:03:53;101141.19;;;3.80;100.00
3142;BME280;1581;51.568;6.998;2023-04-26T02:06:22;101146.88;;;3.85;100.00
3142;BME280;1581;51.568;6.998;2023-04-26T02:08:53;101147.44;;;3.79;100.00
3142;BME280;1581;51.568;6.998;2023-04-26T02:11:22;101147.88;;;3.94;100.00
3142;BME280;1581;51.568;6.998;2023-04-26T02:13:52;101153.41;;;3.91;100.00
3142;BME280;1581;51.568;6.998;2023-04-26T02:16:30;101152.44;;;3.82;100.00
3142;BME280;1581;51.568;6.998;2023-04-26T02:19:01;101152.84;;;3.87;100.00
3142;BME280;1581;51.568;6.998;2023-04-26T02:21:30;101152.53;;;3.71;100.00
3142;BME280;1581;51.568;6.998;2023-04-26T02:23:58;101145.91;;;3.77;100.00
3142;BME280;1581;51.568;6.998;2023-04-26T02:26:26;101152.69;;;3.79;100.00
3142;BME280;1581;51.568;6.998;2023-04-26T02:28:55;101154.06;;;3.74;100.00
3142;BME280;1581;51.568;6.998;2023-04-26T02:31:25;101151.16;;;3.77;100.00
3142;BME280;1581;51.568;6.998;2023-04-26T02:33:54;101151.69;;;3.61;100.00
3142;BME280;1581;51.568;6.998;2023-04-26T02:36:22;101144.91;;;3.68;100.00
3142;BME280;1581;51.568;6.998;2023-04-26T02:38:50;101148.94;;;3.72;100.00
3142;BME280;1581;51.568;6.998;2023-04-26T02:41:18;101152.41;;;3.63;100.00
3142;BME280;1581;51.568;6.998;2023-04-26T02:43:46;101145.34;;;3.73;100.00
3142;BME280;1581;51.568;6.998;2023-04-26T02:46:14;101144.75;;;3.60;100.00
3142;BME280;1581;51.568;6.998;2023-04-26T02:48:43;101147.88;;;3.45;100.00
3142;BME280;1581;51.568;6.998;2023-04-26T02:51:11;101146.06;;;3.45;100.00
3142;BME280;1581;51.568;6.998;2023-04-26T02:53:39;101152.50;;;3.52;100.00
3142;BME280;1581;51.568;6.998;2023-04-26T02:56:07;101150.13;;;3.49;100.00
3142;BME280;1581;51.568;6.998;2023-04-26T02:58:36;101147.31;;;3.41;100.00
3142;BME280;1581;51.568;6.998;2023-04-26T03:01:06;101156.34;;;3.48;100.00
3142;BME280;1581;51.568;6.998;2023-04-26T03:03:34;101153.56;;;3.40;100.00
3142;BME280;1581;51.568;6.998;2023-04-26T03:06:05;101143.03;;;3.40;100.00
3142;BME280;1581;51.568;6.998;2023-04-26T03:08:34;101148.03;;;3.43;100.00
3142;BME280;1581;51.568;6.998;2023-04-26T03:11:03;101142.72;;;3.34;100.00
3142;BME280;1581;51.568;6.998;2023-04-26T03:13:31;101142.38;;;3.48;100.00
3142;BME280;1581;51.568;6.998;2023-04-26T03:15:58;101149.81;;;3.43;100.00
3142;BME280;1581;51.568;6.998;2023-04-26T03:18:26;101140.81;;;3.45;100.00
3142;BME280;1581;51.568;6.998;2023-04-26T03:20:54;101142.22;;;3.49;100.00
3142;BME280;1581;51.568;6.998;2023-04-26T03:23:23;101140.16;;;3.53;100.00
3142;BME280;1581;51.568;6.998;2023-04-26T03:25:52;101143.88;;;3.50;100.00
3142;BME280;1581;51.568;6.998;2023-04-26T03:28:20;101132.50;;;3.40;100.00
3142;BME280;1581;51.568;6.998;2023-04-26T03:30:48;101137.56;;;3.62;100.00
3142;BME280;1581;51.568;6.998;2023-04-26T03:33:16;101144.69;;;3.41;100.00
3142;BME280;1581;51.568;6.998;2023-04-26T03:35:44;101133.50;;;3.49;100.00
3142;BME280;1581;51.568;6.998;2023-04-26T03:38:13;101131.13;;;3.46;100.00
3142;BME280;1581;51.568;6.998;2023-04-26T03:40:42;101132.75;;;3.38;100.00
3142;BME280;1581;51.568;6.998;2023-04-26T03:43:10;101130.91;;;3.29;100.00
3142;BME280;1581;51.568;6.998;2023-04-26T03:45:38;101134.66;;;3.26;100.00
3142;BME280;1581;51.568;6.998;2023-04-26T03:48:06;101131.06;;;3.27;100.00
3142;BME280;1581;51.568;6.998;2023-04-26T03:50:34;101127.72;;;3.35;100.00
3142;BME280;1581;51.568;6.998;2023-04-26T03:53:02;101128.59;;;3.44;100.00
3142;BME280;1581;51.568;6.998;2023-04-26T03:55:30;101130.88;;;3.49;100.00
3142;BME280;1581;51.568;6.998;2023-04-26T03:58:01;101133.44;;;3.39;100.00
3142;BME280;1581;51.568;6.998;2023-04-26T04:00:33;101132.50;;;3.40;100.00
3142;BME280;1581;51.568;6.998;2023-04-26T04:03:01;101129.44;;;3.45;100.00
3142;BME280;1581;51.568;6.998;2023-04-26T04:05:29;101124.31;;;3.43;100.00
3142;BME280;1581;51.568;6.998;2023-04-26T04:07:56;101123.22;;;3.46;100.00
3142;BME280;1581;51.568;6.998;2023-04-26T04:10:25;101126.81;;;3.54;100.00
3142;BME280;1581;51.568;6.998;2023-04-26T04:12:52;101131.53;;;3.41;100.00
3142;BME280;1581;51.568;6.998;2023-04-26T04:15:23;101143.53;;;3.35;100.00
3142;BME280;1581;51.568;6.998;2023-04-26T04:17:51;101134.97;;;3.42;100.00
3142;BME280;1581;51.568;6.998;2023-04-26T04:20:19;101126.34;;;3.31;100.00
3142;BME280;1581;51.568;6.998;2023-04-26T04:22:47;101125.28;;;3.42;100.00
3142;BME280;1581;51.568;6.998;2023-04-26T04:25:16;101128.72;;;3.34;100.00
3142;BME280;1581;51.568;6.998;2023-04-26T04:27:47;101132.50;;;3.40;100.00
3142;BME280;1581;51.568;6.998;2023-04-26T04:30:15;101127.06;;;3.42;100.00
3142;BME280;1581;51.568;6.998;2023-04-26T04:32:45;101132.84;;;3.27;100.00
3142;BME280;1581;51.568;6.998;2023-04-26T04:35:12;101137.84;;;3.30;100.00
3142;BME280;1581;51.568;6.998;2023-04-26T04:37:40;101133.75;;;3.46;100.00
3142;BME280;1581;51.568;6.998;2023-04-26T04:40:10;101139.59;;;3.20;100.00
3142;BME280;1581;51.568;6.998;2023-04-26T04:42:38;101141.22;;;3.41;100.00
3142;BME280;1581;51.568;6.998;2023-04-26T04:45:08;101139.94;;;3.36;100.00
3142;BME280;1581;51.568;6.998;2023-04-26T04:47:36;101145.25;;;3.45;100.00
3142;BME280;1581;51.568;6.998;2023-04-26T04:50:07;101145.56;;;3.51;100.00
3142;BME280;1581;51.568;6.998;2023-04-26T04:52:35;101144.50;;;3.63;100.00
3142;BME280;1581;51.568;6.998;2023-04-26T04:55:04;101152.34;;;3.54;100.00
3142;BME280;1581;51.568;6.998;2023-04-26T04:57:32;101151.38;;;3.55;100.00
3142;BME280;1581;51.568;6.998;2023-04-26T05:00:01;101152.50;;;3.52;100.00
3142;BME280;1581;51.568;6.998;2023-04-26T05:02:34;101158.75;;;3.61;100.00
3142;BME280;1581;51.568;6.998;2023-04-26T05:05:05;101153.38;;;3.72;100.00
3142;BME280;1581;51.568;6.998;2023-04-26T05:07:34;101161.06;;;3.84;100.00
3142;BME280;1581;51.568;6.998;2023-04-26T05:10:03;101160.06;;;3.85;100.00
3142;BME280;1581;51.568;6.998;2023-04-26T05:12:32;101165.31;;;3.85;100.00
3142;BME280;1581;51.568;6.998;2023-04-26T05:15:02;101168.03;;;4.04;100.00
3142;BME280;1581;51.568;6.998;2023-04-26T05:17:31;101170.22;;;3.99;100.00
3142;BME280;1581;51.568;6.998;2023-04-26T05:19:59;101159.81;;;4.07;100.00
3142;BME280;1581;51.568;6.998;2023-04-26T05:22:33;101172.72;;;4.10;100.00
3142;BME280;1581;51.568;6.998;2023-04-26T05:25:02;101173.56;;;4.11;100.00
3142;BME280;1581;51.568;6.998;2023-04-26T05:27:31;101174.56;;;4.28;100.00
3142;BME280;1581;51.568;6.998;2023-04-26T05:30:00;101170.66;;;4.32;100.00
3142;BME280;1581;51.568;6.998;2023-04-26T05:32:28;101180.63;;;4.10;100.00
3142;BME280;1581;51.568;6.998;2023-04-26T05:34:57;101180.53;;;4.21;100.00
3142;BME280;1581;51.568;6.998;2023-04-26T05:37:26;101186.50;;;4.42;100.00
3142;BME280;1581;51.568;6.998;2023-04-26T05:39:55;101186.34;;;4.43;100.00
3142;BME280;1581;51.568;6.998;2023-04-26T05:42:23;101182.19;;;4.50;100.00
3142;BME280;1581;51.568;6.998;2023-04-26T05:44:55;101178.16;;;4.56;100.00
3142;BME280;1581;51.568;6.998;2023-04-26T05:47:23;101184.25;;;4.75;100.00
3142;BME280;1581;51.568;6.998;2023-04-26T05:49:51;101187.69;;;4.95;100.00
3142;BME280;1581;51.568;6.998;2023-04-26T05:52:19;101187.25;;;4.99;100.00
3142;BME280;1581;51.568;6.998;2023-04-26T05:54:47;101193.53;;;4.89;100.00
3142;BME280;1581;51.568;6.998;2023-04-26T05:57:17;101184.63;;;4.99;100.00
3142;BME280;1581;51.568;6.998;2023-04-26T05:59:45;101192.75;;;5.24;100.00
3142;BME280;1581;51.568;6.998;2023-04-26T06:02:13;101200.28;;;5.19;100.00
3142;BME280;1581;51.568;6.998;2023-04-26T06:04:41;101191.91;;;5.33;100.00
3142;BME280;1581;51.568;6.998;2023-04-26T06:07:09;101194.16;;;5.55;100.00
3142;BME280;1581;51.568;6.998;2023-04-26T06:09:37;101197.13;;;5.52;100.00
3142;BME280;1581;51.568;6.998;2023-04-26T06:12:05;101201.44;;;5.53;100.00
3142;BME280;1581;51.568;6.998;2023-04-26T06:14:35;101206.84;;;5.52;100.00
3142;BME280;1581;51.568;6.998;2023-04-26T06:17:03;101196.59;;;5.39;100.00
3142;BME280;1581;51.568;6.998;2023-04-26T06:19:31;101202.59;;;5.41;100.00
3142;BME280;1581;51.568;6.998;2023-04-26T06:21:59;101207.38;;;5.65;100.00
3142;BME280;1581;51.568;6.998;2023-04-26T06:24:27;101215.22;;;5.84;100.00
3142;BME280;1581;51.568;6.998;2023-04-26T06:26:55;101212.22;;;5.69;100.00
3142;BME280;1581;51.568;6.998;2023-04-26T06:29:23;101215.72;;;5.97;100.00
3142;BME280;1581;51.568;6.998;2023-04-26T06:31:53;101213.53;;;5.92;100.00
3142;BME280;1581;51.568;6.998;2023-04-26T06:34:21;101220.38;;;6.29;100.00
3142;BME280;1581;51.568;6.998;2023-04-26T06:36:50;101217.53;;;6.75;100.00
3142;BME280;1581;51.568;6.998;2023-04-26T06:39:18;101219.47;;;6.90;100.00
3142;BME280;1581;51.568;6.998;2023-04-26T06:41:47;101225.50;;;7.18;100.00
3142;BME280;1581;51.568;6.998;2023-04-26T06:44:15;101225.28;;;7.37;100.00
3142;BME280;1581;51.568;6.998;2023-04-26T06:46:43;101218.69;;;7.49;100.00
3142;BME280;1581;51.568;6.998;2023-04-26T06:49:12;101228.63;;;7.72;100.00
3142;BME280;1581;51.568;6.998;2023-04-26T06:51:40;101227.38;;;7.92;100.00
3142;BME280;1581;51.568;6.998;2023-04-26T06:54:10;101222.28;;;7.98;100.00
3142;BME280;1581;51.568;6.998;2023-04-26T06:56:39;101222.88;;;7.84;100.00
3142;BME280;1581;51.568;6.998;2023-04-26T06:59:07;101216.97;;;7.98;100.00
3142;BME280;1581;51.568;6.998;2023-04-26T07:01:35;101210.75;;;8.15;100.00
3142;BME280;1581;51.568;6.998;2023-04-26T07:04:05;101217.19;;;8.13;100.00
3142;BME280;1581;51.568;6.998;2023-04-26T07:06:37;101220.69;;;7.80;100.00
3142;BME280;1581;51.568;6.998;2023-04-26T07:09:04;101212.59;;;7.89;100.00
3142;BME280;1581;51.568;6.998;2023-04-26T07:11:33;101213.09;;;8.26;100.00
3142;BME280;1581;51.568;6.998;2023-04-26T07:14:01;101211.94;;;8.37;100.00
3142;BME280;1581;51.568;6.998;2023-04-26T07:16:28;101220.72;;;8.21;100.00
3142;BME280;1581;51.568;6.998;2023-04-26T07:18:57;101221.59;;;8.38;100.00
3142;BME280;1581;51.568;6.998;2023-04-26T07:21:24;101223.41;;;8.37;100.00
3142;BME280;1581;51.568;6.998;2023-04-26T07:23:55;101217.13;;;8.54;100.00
3142;BME280;1581;51.568;6.998;2023-04-26T07:26:25;101219.78;;;8.54;100.00
3142;BME280;1581;51.568;6.998;2023-04-26T07:28:54;101221.63;;;8.77;100.00
3142;BME280;1581;51.568;6.998;2023-04-26T07:31:22;101219.47;;;8.81;100.00
3142;BME280;1581;51.568;6.998;2023-04-26T07:33:50;101220.47;;;8.64;99.54
3142;BME280;1581;51.568;6.998;2023-04-26T07:36:19;101221.94;;;8.74;98.23
3142;BME280;1581;51.568;6.998;2023-04-26T07:38:47;101220.81;;;9.17;95.90
3142;BME280;1581;51.568;6.998;2023-04-26T07:41:16;101215.25;;;9.50;93.60
3142;BME280;1581;51.568;6.998;2023-04-26T07:43:44;101214.19;;;9.67;90.22
3142;BME280;1581;51.568;6.998;2023-04-26T07:46:12;101220.66;;;9.72;85.43
3142;BME280;1581;51.568;6.998;2023-04-26T07:48:40;101227.19;;;10.08;86.13
3142;BME280;1581;51.568;6.998;2023-04-26T07:51:10;101229.78;;;10.24;82.05
3142;BME280;1581;51.568;6.998;2023-04-26T07:53:39;101223.47;;;10.25;82.79
3142;BME280;1581;51.568;6.998;2023-04-26T07:56:08;101217.91;;;10.34;80.56
3142;BME280;1581;51.568;6.998;2023-04-26T07:58:38;101222.06;;;10.37;79.22
3142;BME280;1581;51.568;6.998;2023-04-26T08:01:06;101221.84;;;10.46;77.09
3142;BME280;1581;51.568;6.998;2023-04-26T08:03:35;101225.75;;;10.58;78.66
3142;BME280;1581;51.568;6.998;2023-04-26T08:06:03;101219.81;;;10.26;78.64
3142;BME280;1581;51.568;6.998;2023-04-26T08:08:31;101223.19;;;10.12;76.42
3142;BME280;1581;51.568;6.998;2023-04-26T08:11:00;101223.84;;;10.14;76.47
3142;BME280;1581;51.568;6.998;2023-04-26T08:13:28;101219.16;;;10.24;77.56
3142;BME280;1581;51.568;6.998;2023-04-26T08:15:58;101215.25;;;10.34;79.01
3142;BME280;1581;51.568;6.998;2023-04-26T08:18:26;101221.06;;;10.08;79.33
3142;BME280;1581;51.568;6.998;2023-04-26T08:20:54;101219.25;;;9.92;82.44
3142;BME280;1581;51.568;6.998;2023-04-26T08:23:21;101214.16;;;9.83;78.96
3142;BME280;1581;51.568;6.998;2023-04-26T08:25:49;101210.84;;;10.19;76.78
3142;BME280;1581;51.568;6.998;2023-04-26T08:28:17;101212.56;;;10.34;75.42
3142;BME280;1581;51.568;6.998;2023-04-26T08:30:45;101211.69;;;10.20;75.43
3142;BME280;1581;51.568;6.998;2023-04-26T08:33:16;101219.69;;;10.42;75.88
3142;BME280;1581;51.568;6.998;2023-04-26T08:35:44;101219.50;;;10.43;75.08
3142;BME280;1581;51.568;6.998;2023-04-26T08:38:12;101221.50;;;10.49;74.58
3142;BME280;1581;51.568;6.998;2023-04-26T08:40:41;101226.19;;;10.92;74.39
3142;BME280;1581;51.568;6.998;2023-04-26T08:43:10;101221.06;;;11.05;71.79
3142;BME280;1581;51.568;6.998;2023-04-26T08:45:39;101220.22;;;11.05;70.49
3142;BME280;1581;51.568;6.998;2023-04-26T08:48:10;101225.09;;;11.38;67.11
3142;BME280;1581;51.568;6.998;2023-04-26T08:50:44;101231.03;;;11.77;66.28
3142;BME280;1581;51.568;6.998;2023-04-26T08:53:14;101227.81;;;11.67;63.19
3142;BME280;1581;51.568;6.998;2023-04-26T08:55:47;101230.31;;;11.83;61.46
3142;BME280;1581;51.568;6.998;2023-04-26T08:58:17;101224.91;;;12.26;60.73
3142;BME280;1581;51.568;6.998;2023-04-26T09:00:45;101227.44;;;12.48;59.06
3142;BME280;1581;51.568;6.998;2023-04-26T09:03:14;101228.47;;;12.68;58.83
3142;BME280;1581;51.568;6.998;2023-04-26T09:05:43;101238.03;;;12.42;57.80
3142;BME280;1581;51.568;6.998;2023-04-26T09:08:15;101227.34;;;11.12;56.77
3142;BME280;1581;51.568;6.998;2023-04-26T09:10:44;101229.28;;;10.51;61.19
3142;BME280;1581;51.568;6.998;2023-04-26T09:13:11;101223.16;;;10.73;59.90
3142;BME280;1581;51.568;6.998;2023-04-26T09:15:39;101221.88;;;10.83;62.85
3142;BME280;1581;51.568;6.998;2023-04-26T09:18:19;101231.75;;;10.83;60.44
3142;BME280;1581;51.568;6.998;2023-04-26T09:21:03;101228.75;;;11.37;58.96
3142;BME280;1581;51.568;6.998;2023-04-26T09:23:31;101230.13;;;11.33;55.54
3142;BME280;1581;51.568;6.998;2023-04-26T09:26:19;101236.81;;;11.80;56.47
3142;BME280;1581;51.568;6.998;2023-04-26T09:28:48;101237.66;;;12.09;53.32
3142;BME280;1581;51.568;6.998;2023-04-26T09:31:36;101237.09;;;12.14;55.47
3142;BME280;1581;51.568;6.998;2023-04-26T09:34:04;101228.50;;;11.46;53.71
3142;BME280;1581;51.568;6.998;2023-04-26T09:36:49;101237.28;;;11.84;53.99
3142;BME280;1581;51.568;6.998;2023-04-26T09:39:32;101242.34;;;12.07;53.66
3142;BME280;1581;51.568;6.998;2023-04-26T09:42:01;101234.88;;;12.17;55.27
3142;BME280;1581;51.568;6.998;2023-04-26T09:44:30;101234.84;;;12.32;53.18
3142;BME280;1581;51.568;6.998;2023-04-26T09:47:03;101237.06;;;12.64;53.21
3142;BME280;1581;51.568;6.998;2023-04-26T09:49:32;101233.41;;;12.15;50.28
3142;BME280;1581;51.568;6.998;2023-04-26T09:52:04;101238.88;;;12.28;52.10
3142;BME280;1581;51.568;6.998;2023-04-26T09:54:44;101219.50;;;11.47;54.64
3142;BME280;1581;51.568;6.998;2023-04-26T09:57:14;101220.88;;;12.01;55.01
3142;BME280;1581;51.568;6.998;2023-04-26T09:59:45;101223.13;;;12.33;52.81
3142;BME280;1581;51.568;6.998;2023-04-26T10:02:21;101211.28;;;12.06;54.80
3142;BME280;1581;51.568;6.998;2023-04-26T10:04:51;101214.06;;;12.48;53.73
3142;BME280;1581;51.568;6.998;2023-04-26T10:07:23;101211.06;;;12.37;51.81
3142;BME280;1581;51.568;6.998;2023-04-26T10:09:52;101204.53;;;12.60;51.34
3142;BME280;1581;51.568;6.998;2023-04-26T10:12:20;101216.19;;;12.74;51.52
3142;BME280;1581;51.568;6.998;2023-04-26T10:14:48;101217.91;;;12.81;51.16
3142;BME280;1581;51.568;6.998;2023-04-26T10:17:18;101212.41;;;11.98;50.58
3142;BME280;1581;51.568;6.998;2023-04-26T10:19:50;101208.84;;;11.62;54.31
3142;BME280;1581;51.568;6.998;2023-04-26T10:22:35;101216.88;;;11.76;54.21
3142;BME280;1581;51.568;6.998;2023-04-26T10:25:05;101220.34;;;11.77;50.34
3142;BME280;1581;51.568;6.998;2023-04-26T10:27:50;101217.03;;;11.60;53.88
3142;BME280;1581;51.568;6.998;2023-04-26T10:30:22;101217.78;;;11.69;53.55
3142;BME280;1581;51.568;6.998;2023-04-26T10:33:20;101208.75;;;11.70;53.52
3142;BME280;1581;51.568;6.998;2023-04-26T10:36:11;101211.13;;;11.94;52.52
3142;BME280;1581;51.568;6.998;2023-04-26T10:38:41;101211.09;;;11.50;53.69
3142;BME280;1581;51.568;6.998;2023-04-26T10:41:35;101206.53;;;11.59;55.89
3142;BME280;1581;51.568;6.998;2023-04-26T10:44:39;101207.06;;;11.40;55.79
3142;BME280;1581;51.568;6.998;2023-04-26T10:47:22;101211.22;;;11.86;53.92
3142;BME280;1581;51.568;6.998;2023-04-26T10:49:51;101209.03;;;12.60;54.81
3142;BME280;1581;51.568;6.998;2023-04-26T10:52:20;101205.97;;;13.25;51.49
3142;BME280;1581;51.568;6.998;2023-04-26T10:54:55;101220.72;;;17.77;41.22
3142;BME280;1581;51.568;6.998;2023-04-26T10:57:50;101225.88;;;18.50;35.61
3142;BME280;1581;51.568;6.998;2023-04-26T11:00:28;101220.00;;;20.15;34.04
3142;BME280;1581;51.568;6.998;2023-04-26T11:03:05;101212.34;;;18.39;37.45
3142;BME280;1581;51.568;6.998;2023-04-26T11:05:53;101208.66;;;16.89;36.93
3142;BME280;1581;51.568;6.998;2023-04-26T11:08:25;101201.28;;;17.51;38.19
3142;BME280;1581;51.568;6.998;2023-04-26T11:11:10;101211.94;;;16.03;37.19
3142;BME280;1581;51.568;6.998;2023-04-26T11:13:40;101195.16;;;14.99;38.48
3142;BME280;1581;51.568;6.998;2023-04-26T11:16:09;101202.13;;;14.62;41.64
3142;BME280;1581;51.568;6.998;2023-04-26T11:18:40;101207.22;;;13.90;41.61
3142;BME280;1581;51.568;6.998;2023-04-26T11:21:09;101195.72;;;14.56;40.56
3142;BME280;1581;51.568;6.998;2023-04-26T11:23:38;101200.81;;;14.32;39.92
3142;BME280;1581;51.568;6.998;2023-04-26T11:26:08;101197.00;;;14.86;39.15
3142;BME280;1581;51.568;6.998;2023-04-26T11:28:38;101202.06;;;15.97;38.62
3142;BME280;1581;51.568;6.998;2023-04-26T11:31:07;101206.06;;;18.09;36.27
3142;BME280;1581;51.568;6.998;2023-04-26T11:33:35;101201.06;;;17.04;35.52
3142;BME280;1581;51.568;6.998;2023-04-26T11:36:03;101197.06;;;17.97;33.79
3142;BME280;1581;51.568;6.998;2023-04-26T11:38:31;101197.59;;;15.65;36.42
3142;BME280;1581;51.568;6.998;2023-04-26T11:41:01;101191.72;;;16.82;35.54
3142;BME280;1581;51.568;6.998;2023-04-26T11:43:34;101194.19;;;21.24;29.73
3142;BME280;1581;51.568;6.998;2023-04-26T11:46:03;101215.41;;;24.43;26.70
3142;BME280;1581;51.568;6.998;2023-04-26T11:48:33;101219.84;;;27.43;24.77
3142;BME280;1581;51.568;6.998;2023-04-26T11:51:03;101219.50;;;27.21;22.50
3142;BME280;1581;51.568;6.998;2023-04-26T11:53:35;101206.63;;;23.07;26.70
3142;BME280;1581;51.568;6.998;2023-04-26T11:56:12;101203.28;;;20.85;28.32
3142;BME280;1581;51.568;6.998;2023-04-26T11:58:46;101193.56;;;17.97;31.74
3142;BME280;1581;51.568;6.998;2023-04-26T12:01:21;101189.50;;;18.94;31.53
3142;BME280;1581;51.568;6.998;2023-04-26T12:03:50;101205.81;;;22.33;28.31
3142;BME280;1581;51.568;6.998;2023-04-26T12:06:19;101208.69;;;20.18;29.67
3142;BME280;1581;51.568;6.998;2023-04-26T12:08:50;101200.75;;;18.79;31.60
3142;BME280;1581;51.568;6.998;2023-04-26T12:11:20;101189.38;;;18.48;32.43
3142;BME280;1581;51.568;6.998;2023-04-26T12:13:49;101190.34;;;18.94;32.31
3142;BME280;1581;51.568;6.998;2023-04-26T12:16:17;101192.13;;;18.59;33.28
3142;BME280;1581;51.568;6.998;2023-04-26T12:18:50;101205.03;;;22.16;29.18
3142;BME280;1581;51.568;6.998;2023-04-26T12:21:18;101197.97;;;21.39;28.89
3142;BME280;1581;51.568;6.998;2023-04-26T12:23:46;101196.31;;;21.38;28.42
3142;BME280;1581;51.568;6.998;2023-04-26T12:26:15;101212.28;;;27.35;23.57
3142;BME280;1581;51.568;6.998;2023-04-26T12:28:43;101211.47;;;25.10;24.86
3142;BME280;1581;51.568;6.998;2023-04-26T12:31:13;101202.00;;;22.55;25.59
3142;BME280;1581;51.568;6.998;2023-04-26T12:33:41;101225.22;;;28.93;20.83
3142;BME280;1581;51.568;6.998;2023-04-26T12:36:11;101230.94;;;32.51;18.36
3142;BME280;1581;51.568;6.998;2023-04-26T12:38:39;101236.22;;;33.03;17.33
3142;BME280;1581;51.568;6.998;2023-04-26T12:41:08;101223.81;;;31.72;18.11
3142;BME280;1581;51.568;6.998;2023-04-26T12:43:36;101221.72;;;31.78;18.99
3142;BME280;1581;51.568;6.998;2023-04-26T12:46:05;101226.59;;;31.07;18.33
3142;BME280;1581;51.568;6.998;2023-04-26T12:48:34;101208.78;;;30.29;17.98
3142;BME280;1581;51.568;6.998;2023-04-26T12:51:03;101204.47;;;27.18;20.77
3142;BME280;1581;51.568;6.998;2023-04-26T12:53:32;101209.69;;;28.28;20.32
3142;BME280;1581;51.568;6.998;2023-04-26T12:56:00;101206.25;;;27.33;20.39
3142;BME280;1581;51.568;6.998;2023-04-26T12:58:28;101199.97;;;24.73;22.82
3142;BME280;1581;51.568;6.998;2023-04-26T13:00:56;101184.97;;;22.64;25.26
3142;BME280;1581;51.568;6.998;2023-04-26T13:03:24;101185.78;;;21.42;27.00
3142;BME280;1581;51.568;6.998;2023-04-26T13:05:53;101185.41;;;21.00;27.55
3142;BME280;1581;51.568;6.998;2023-04-26T13:08:21;101185.38;;;18.80;31.77
3142;BME280;1581;51.568;6.998;2023-04-26T13:10:49;101183.53;;;16.95;34.27
3142;BME280;1581;51.568;6.998;2023-04-26T13:13:17;101176.78;;;17.10;34.92
3142;BME280;1581;51.568;6.998;2023-04-26T13:15:45;101181.00;;;17.30;34.13
3142;BME280;1581;51.568;6.998;2023-04-26T13:18:13;101172.09;;;16.99;34.42
3142;BME280;1581;51.568;6.998;2023-04-26T13:20:43;101177.19;;;16.15;35.88
3142;BME280;1581;51.568;6.998;2023-04-26T13:23:12;101184.38;;;16.64;34.88
3142;BME280;1581;51.568;6.998;2023-04-26T13:25:40;101176.97;;;16.60;35.88